Flag for USA

Past Weather in Manitowoc, Wisconsin, USA — Yesterday and Last 2 Weeks

Currently: 11 °F. Clear. (Weather station: Manitowoc Municipal, USA). See more current weather

Past Weather in Manitowoc — Graph

°F

Manitowoc Temperature Yesterday

Maximum temperature yesterday: 27 °F (at 2:11 pm)
Minimum temperature yesterday: 13 °F (at 9:56 pm)
Average temperature yesterday: 21 °F

High & Low Weather Summary for the Past Weeks

 TemperatureHumidityPressure
High39 °F (Jan 13, 12:56 pm)100% (Jan 13, 2:56 am)30.40 "Hg (Jan 13, 2:56 am)
Low8 °F (Jan 20, 5:56 am)40% (Jan 23, 2:56 pm)29.42 "Hg (Jan 15, 12:38 am)
Average26 °F82%29.88 "Hg
* Reported Jan 12 2:56 am — Jan 27 2:56 am, Manitowoc. Weather by CustomWeather, © 2021

Note: Actual official high and low records may vary slightly from our data, if they occured in-between our weather recording intervals... More about our weather records

Manitowoc Weather History for the Previous 24 Hours

Scroll right to see more
 ConditionsComfort  
Time TempWeatherWind HumidityBarometerVisibility
2:56 am
Wed, Jan 27
10 °FClear.8 mph84%30.37 "Hg10 mi
1:56 am11 °FClear.8 mph81%30.35 "Hg10 mi
12:56 am11 °FClear.9 mph84%30.32 "Hg10 mi
11:56 pm
Tue, Jan 26
13 °FClear.8 mph81%30.30 "Hg10 mi
10:56 pm13 °FClear.7 mph81%30.28 "Hg10 mi
9:56 pm13 °FClear.7 mph84%30.26 "Hg10 mi
8:56 pm14 °FClear.5 mph80%30.25 "Hg10 mi
7:56 pm16 °FClear.3 mph80%30.24 "Hg10 mi
6:56 pm18 °FClear.6 mph77%30.21 "Hg10 mi
5:56 pm16 °FPassing clouds.3 mph80%30.18 "Hg10 mi
4:56 pm21 °FClear.8 mph71%30.16 "Hg10 mi
4:34 pm21 °FScattered clouds.9 mph68%30.12 "Hg10 mi
3:56 pm23 °FOvercast.10 mph74%30.13 "Hg10 mi
2:56 pm24 °FLight snow. Overcast.13 mph77%30.09 "Hg9 mi
2:37 pm25 °FMostly cloudy.14 mph74%30.05 "Hg10 mi
2:11 pm27 °FCloudy.13 mph69%30.04 "Hg10 mi
1:56 pm25 °FMostly cloudy.14 mph72%30.06 "Hg10 mi
12:56 pm24 °FLight snow. Overcast.15 mph77%30.05 "Hg9 mi
11:56 am25 °FLight snow. Overcast.14 mph81%30.02 "Hg5 mi
11:36 am25 °FLight snow. Ice fog.15 mph86%29.99 "Hg4 mi
10:56 am25 °FLight snow. Ice fog.14 mph88%30.01 "Hg2 mi
10:27 am25 °FLight snow. Ice fog.12 mph86%29.98 "Hg1 mi
10:20 am25 °FLight snow. Ice fog.14 mph86%29.97 "Hg1 mi
10:04 am25 °FLight snow. Ice fog.14 mph86%29.96 "Hg1 mi
9:37 am25 °FLight snow. Ice fog.14 mph86%29.95 "Hg1 mi
9:06 am23 °FLight snow. Ice fog.13 mph93%29.94 "Hg1 mi
8:39 am21 °FLight snow. Ice fog.14 mph93%29.93 "Hg2 mi
8:13 am23 °FLight snow. Ice fog.15 mph86%29.92 "Hg1 mi
7:16 am21 °FLight snow. Ice fog.14 mph93%29.92 "Hg1 mi
6:56 am22 °FLight snow. Ice fog.13 mph92%29.95 "Hg2 mi
5:56 am21 °FLight snow. Ice fog.15 mph92%29.96 "Hg1 mi
Weather by CustomWeather, © 2021

See weather overview